createdAt,value
2019-02-05T00:02:06.525Z,89.30
2019-02-05T00:04:32.789Z,89.40
2019-02-05T00:06:59.278Z,89.30
2019-02-05T00:09:25.628Z,88.90
2019-02-05T00:11:52.032Z,88.70
2019-02-05T00:14:18.575Z,88.20
2019-02-05T00:16:44.917Z,88.10
2019-02-05T00:19:11.404Z,87.90
2019-02-05T00:21:37.761Z,88.00
2019-02-05T00:24:04.441Z,88.10
2019-02-05T00:26:30.943Z,87.90
2019-02-05T00:28:57.221Z,88.10
2019-02-05T00:31:23.705Z,87.50
2019-02-05T00:33:50.390Z,87.50
2019-02-05T00:36:16.771Z,87.50
2019-02-05T00:38:43.390Z,87.80
2019-02-05T00:41:09.831Z,88.50
2019-02-05T00:43:36.227Z,89.20
2019-02-05T00:46:03.012Z,89.80
2019-02-05T00:48:29.376Z,89.90
2019-02-05T00:50:55.976Z,90.00
2019-02-05T00:53:22.618Z,89.90
2019-02-05T00:55:49.097Z,90.10
2019-02-05T00:58:15.462Z,90.30
2019-02-05T01:00:41.754Z,90.40
2019-02-05T01:03:08.216Z,90.40
2019-02-05T01:05:34.792Z,90.30
2019-02-05T01:08:01.253Z,90.30
2019-02-05T01:10:27.541Z,90.00
2019-02-05T01:12:54.215Z,90.00
2019-02-05T01:15:24.262Z,89.90
2019-02-05T01:17:50.915Z,89.00
2019-02-05T01:20:18.196Z,88.40
2019-02-05T01:22:44.734Z,88.50
2019-02-05T01:25:11.473Z,88.70
2019-02-05T01:27:40.732Z,89.10
2019-02-05T01:30:22.207Z,89.70
2019-02-05T01:32:48.544Z,90.00
2019-02-05T01:35:15.013Z,90.10
2019-02-05T01:37:41.612Z,88.80
2019-02-05T01:40:11.671Z,88.10
2019-02-05T01:42:38.614Z,88.40
2019-02-05T01:45:08.939Z,87.60
2019-02-05T01:47:35.354Z,86.80
2019-02-05T01:50:03.102Z,87.70
2019-02-05T01:52:29.330Z,88.80
2019-02-05T01:54:55.601Z,89.10
2019-02-05T01:57:22.078Z,88.70
2019-02-05T01:59:48.460Z,88.70
2019-02-05T02:02:15.015Z,88.20
2019-02-05T02:04:41.485Z,88.60
2019-02-05T02:07:08.243Z,88.20
2019-02-05T02:09:34.628Z,86.40
2019-02-05T02:12:01.109Z,86.40
2019-02-05T02:14:27.513Z,86.50
2019-02-05T02:16:53.979Z,86.70
2019-02-05T02:19:20.445Z,87.00
2019-02-05T02:21:49.114Z,86.40
2019-02-05T02:24:15.634Z,86.00
2019-02-05T02:26:51.815Z,85.60
2019-02-05T02:29:10.274Z,84.40
2019-02-05T02:31:36.747Z,85.10
2019-02-05T02:34:03.193Z,85.50
2019-02-05T02:36:29.673Z,85.50
2019-02-05T02:38:56.047Z,85.30
2019-02-05T02:41:22.377Z,85.90
2019-02-05T02:43:48.838Z,87.50
2019-02-05T02:46:15.334Z,86.80
2019-02-05T02:48:41.578Z,85.40
2019-02-05T02:51:08.081Z,86.10
2019-02-05T02:53:34.333Z,86.70
2019-02-05T02:56:00.600Z,86.90
2019-02-05T02:58:27.065Z,86.70
2019-02-05T03:00:53.525Z,87.60
2019-02-05T03:03:20.002Z,86.10
2019-02-05T03:05:46.358Z,85.70
2019-02-05T03:08:12.844Z,85.50
2019-02-05T03:10:39.186Z,86.10
2019-02-05T03:13:05.743Z,86.40
2019-02-05T03:15:32.129Z,86.50
2019-02-05T03:17:58.491Z,86.30
2019-02-05T03:20:24.848Z,86.20
2019-02-05T03:22:51.670Z,86.80
2019-02-05T03:25:20.555Z,86.00
2019-02-05T03:27:47.001Z,86.10
2019-02-05T03:30:15.778Z,85.50
2019-02-05T03:32:42.657Z,84.60
2019-02-05T03:35:09.836Z,85.00
2019-02-05T03:37:36.270Z,84.60
2019-02-05T03:40:15.153Z,85.50
2019-02-05T03:42:41.541Z,85.70
2019-02-05T03:45:08.090Z,85.10
2019-02-05T03:47:34.664Z,86.30
2019-02-05T03:50:01.308Z,84.80
2019-02-05T03:52:30.687Z,84.00
2019-02-05T03:55:00.747Z,84.90
2019-02-05T03:57:33.798Z,85.20
2019-02-05T04:00:03.882Z,84.60
2019-02-05T04:02:36.635Z,85.70
2019-02-05T04:05:18.578Z,86.80
2019-02-05T04:08:11.144Z,87.40
2019-02-05T04:10:57.659Z,85.70
2019-02-05T04:13:39.629Z,85.30
2019-02-05T04:16:21.676Z,85.40
2019-02-05T04:18:57.715Z,84.20
2019-02-05T04:21:39.594Z,83.20
2019-02-05T04:24:19.034Z,86.00
2019-02-05T04:27:02.051Z,87.50
2019-02-05T04:29:44.459Z,87.10
2019-02-05T04:32:17.606Z,85.90
2019-02-05T04:34:53.707Z,85.80
2019-02-05T04:37:36.063Z,85.50
2019-02-05T04:40:26.266Z,84.50
2019-02-05T04:43:14.488Z,84.80
2019-02-05T04:45:50.823Z,86.20
2019-02-05T04:48:23.849Z,87.60
2019-02-05T04:51:29.183Z,85.00
2019-02-05T04:54:11.477Z,84.60
2019-02-05T04:56:41.660Z,84.50
2019-02-05T04:59:47.569Z,85.60
2019-02-05T05:02:33.302Z,86.50
2019-02-05T05:05:23.255Z,84.20
2019-02-05T05:08:19.826Z,85.20
2019-02-05T05:10:46.740Z,86.30
2019-02-05T05:13:13.552Z,87.10
2019-02-05T05:15:40.189Z,85.00
2019-02-05T05:18:07.195Z,84.20
2019-02-05T05:20:34.097Z,84.00
2019-02-05T05:23:01.055Z,84.50
2019-02-05T05:25:28.677Z,84.90
2019-02-05T05:28:09.762Z,84.50
2019-02-05T05:30:28.258Z,85.20
2019-02-05T05:32:54.860Z,86.00
2019-02-05T05:35:23.582Z,87.20
2019-02-05T05:37:50.567Z,87.70
2019-02-05T05:40:17.170Z,88.20
2019-02-05T05:42:45.639Z,87.70
2019-02-05T05:45:12.962Z,86.00
2019-02-05T05:47:39.716Z,85.10
2019-02-05T05:50:12.706Z,84.20
2019-02-05T05:52:39.323Z,83.80
2019-02-05T05:55:06.340Z,83.70
2019-02-05T05:57:32.896Z,83.00
2019-02-05T05:59:59.371Z,82.60
2019-02-05T06:02:26.055Z,82.80
2019-02-05T06:04:52.722Z,83.60
2019-02-05T06:07:19.406Z,84.10
2019-02-05T06:09:46.090Z,84.30
2019-02-05T06:12:12.709Z,83.20
2019-02-05T06:14:39.390Z,82.90
2019-02-05T06:17:06.173Z,83.20
2019-02-05T06:19:32.849Z,83.40
2019-02-05T06:21:59.360Z,84.00
2019-02-05T06:24:25.737Z,84.10
2019-02-05T06:26:52.334Z,83.10
2019-02-05T06:29:18.965Z,82.60
2019-02-05T06:31:45.671Z,82.40
2019-02-05T06:34:12.378Z,82.60
2019-02-05T06:36:39.035Z,82.90
2019-02-05T06:39:06.534Z,82.70
2019-02-05T06:41:32.939Z,82.40
2019-02-05T06:43:59.289Z,82.10
2019-02-05T06:46:25.589Z,82.40
2019-02-05T06:48:52.109Z,82.30
2019-02-05T06:51:18.711Z,82.30
2019-02-05T06:53:45.146Z,82.00
2019-02-05T06:56:11.923Z,81.30
2019-02-05T06:58:45.996Z,81.00
2019-02-05T07:01:06.996Z,81.30
2019-02-05T07:03:33.526Z,81.60
2019-02-05T07:06:00.075Z,82.00
2019-02-05T07:08:26.606Z,82.00
2019-02-05T07:10:56.223Z,82.10
2019-02-05T07:13:22.715Z,82.20
2019-02-05T07:15:48.977Z,82.60
2019-02-05T07:18:15.525Z,82.00
2019-02-05T07:20:42.261Z,82.70
2019-02-05T07:23:08.828Z,83.20
2019-02-05T07:25:35.420Z,83.40
2019-02-05T07:28:02.014Z,82.90
2019-02-05T07:30:28.593Z,83.20
2019-02-05T07:32:55.048Z,84.00
2019-02-05T07:35:21.626Z,84.20
2019-02-05T07:37:48.496Z,84.60
2019-02-05T07:40:19.798Z,84.80
2019-02-05T07:42:46.431Z,85.00
2019-02-05T07:45:15.943Z,85.40
2019-02-05T07:47:42.386Z,86.00
2019-02-05T07:50:15.628Z,86.30
2019-02-05T07:52:42.281Z,86.20
2019-02-05T07:55:09.748Z,86.00
2019-02-05T07:57:36.141Z,86.50
2019-02-05T08:00:06.606Z,87.50
2019-02-05T08:02:33.091Z,88.20
2019-02-05T08:05:00.862Z,88.20
2019-02-05T08:07:27.864Z,89.30
2019-02-05T08:09:54.225Z,90.30
2019-02-05T08:12:20.720Z,90.60
2019-02-05T08:14:47.246Z,90.60
2019-02-05T08:17:13.642Z,90.80
2019-02-05T08:19:40.010Z,90.90
2019-02-05T08:22:06.457Z,90.90
2019-02-05T08:24:33.241Z,91.30
2019-02-05T08:26:59.732Z,91.80
2019-02-05T08:29:26.159Z,91.90
2019-02-05T08:31:52.663Z,92.10
2019-02-05T08:34:19.111Z,92.10
2019-02-05T08:36:45.428Z,92.20
2019-02-05T08:39:12.047Z,92.30
2019-02-05T08:41:38.682Z,92.70
2019-02-05T08:44:05.210Z,93.50
2019-02-05T08:46:31.827Z,94.40
2019-02-05T08:48:58.295Z,94.50
2019-02-05T08:51:24.697Z,94.90
2019-02-05T08:53:51.352Z,94.80
2019-02-05T08:56:17.881Z,94.60
2019-02-05T08:58:44.451Z,94.60
2019-02-05T09:01:12.409Z,94.30
2019-02-05T09:03:39.113Z,94.20
2019-02-05T09:06:05.619Z,94.20
2019-02-05T09:08:32.512Z,94.30
2019-02-05T09:10:59.075Z,94.20
2019-02-05T09:13:25.571Z,94.20
2019-02-05T09:15:52.062Z,94.00
2019-02-05T09:18:18.798Z,93.60
2019-02-05T09:20:45.229Z,93.40
2019-02-05T09:23:14.228Z,93.10
2019-02-05T09:25:40.063Z,92.80
2019-02-05T09:28:06.720Z,92.60
2019-02-05T09:30:34.866Z,92.40
2019-02-05T09:33:07.711Z,91.70
2019-02-05T09:35:34.190Z,91.30
2019-02-05T09:38:00.713Z,91.00
2019-02-05T09:40:29.745Z,90.60
2019-02-05T09:42:56.680Z,90.90
2019-02-05T09:45:23.402Z,90.20
2019-02-05T09:47:50.311Z,89.30
2019-02-05T09:50:16.763Z,89.30
2019-02-05T09:52:43.557Z,89.10
2019-02-05T09:55:19.975Z,87.40
2019-02-05T09:57:46.615Z,86.80
2019-02-05T10:00:31.548Z,86.00
2019-02-05T10:02:58.539Z,84.40
2019-02-05T10:05:26.970Z,83.70
2019-02-05T10:07:53.578Z,83.80
2019-02-05T10:10:21.266Z,81.80
2019-02-05T10:12:47.776Z,80.00
2019-02-05T10:15:16.793Z,79.00
2019-02-05T10:17:43.292Z,78.70
2019-02-05T10:20:10.854Z,78.90
2019-02-05T10:22:37.622Z,78.00
2019-02-05T10:25:07.352Z,76.30
2019-02-05T10:27:34.184Z,75.40
2019-02-05T10:30:00.732Z,74.20
2019-02-05T10:32:27.347Z,74.40
2019-02-05T10:34:53.967Z,73.10
2019-02-05T10:37:20.601Z,74.00
2019-02-05T10:39:47.194Z,72.40
2019-02-05T10:42:13.940Z,73.90
2019-02-05T10:44:40.543Z,71.30
2019-02-05T10:47:06.983Z,73.30
2019-02-05T10:49:33.512Z,71.90
2019-02-05T10:52:00.051Z,69.50
2019-02-05T10:54:26.522Z,68.70
2019-02-05T10:56:53.296Z,66.80
2019-02-05T10:59:19.865Z,67.70
2019-02-05T11:01:46.624Z,69.20
2019-02-05T11:04:13.335Z,69.00
2019-02-05T11:06:40.188Z,65.00
2019-02-05T11:09:07.207Z,64.90
2019-02-05T11:11:33.874Z,64.00
2019-02-05T11:14:00.472Z,65.20
2019-02-05T11:16:26.956Z,63.60
2019-02-05T11:18:53.398Z,61.20
2019-02-05T11:21:20.037Z,62.90
2019-02-05T11:23:46.702Z,61.50
2019-02-05T11:26:13.940Z,62.00
2019-02-05T11:28:40.353Z,61.90
2019-02-05T11:31:06.814Z,60.00
2019-02-05T11:33:33.507Z,59.10
2019-02-05T11:36:00.084Z,59.80
2019-02-05T11:38:26.741Z,57.70
2019-02-05T11:40:53.304Z,58.20
2019-02-05T11:43:19.743Z,57.60
2019-02-05T11:45:46.411Z,56.80
2019-02-05T11:48:14.445Z,56.70
2019-02-05T11:50:41.107Z,56.90
2019-02-05T11:53:07.812Z,55.80
2019-02-05T11:55:34.404Z,55.80
2019-02-05T11:58:01.026Z,54.40
2019-02-05T12:00:33.170Z,54.70
2019-02-05T12:03:00.025Z,53.90
2019-02-05T12:05:26.456Z,54.50
2019-02-05T12:07:53.509Z,55.70
2019-02-05T12:10:20.038Z,53.40
2019-02-05T12:12:46.706Z,52.50
2019-02-05T12:15:15.405Z,53.50
2019-02-05T12:17:41.911Z,51.90
2019-02-05T12:20:11.657Z,51.20
2019-02-05T12:22:38.139Z,50.70
2019-02-05T12:25:08.334Z,49.30
2019-02-05T12:27:34.945Z,48.10
2019-02-05T12:30:01.780Z,48.40
2019-02-05T12:32:28.195Z,47.30
2019-02-05T12:34:54.634Z,48.70
2019-02-05T12:37:21.226Z,47.90
2019-02-05T12:39:47.949Z,47.00
2019-02-05T12:42:14.432Z,45.60
2019-02-05T12:44:40.929Z,44.20
2019-02-05T12:47:07.382Z,46.30
2019-02-05T12:49:34.258Z,46.00
2019-02-05T12:52:00.803Z,45.40
2019-02-05T12:54:27.212Z,47.60
2019-02-05T12:56:53.733Z,48.90
2019-02-05T12:59:20.220Z,49.40
2019-02-05T13:01:46.884Z,49.20
2019-02-05T13:04:13.536Z,50.50
2019-02-05T13:06:40.019Z,51.60
2019-02-05T13:09:07.434Z,51.40
2019-02-05T13:11:33.982Z,51.70
2019-02-05T13:14:00.498Z,52.90
2019-02-05T13:16:26.921Z,52.20
2019-02-05T13:18:53.663Z,52.60
2019-02-05T13:21:20.414Z,51.90
2019-02-05T13:23:46.966Z,53.40
2019-02-05T13:26:13.556Z,54.50
2019-02-05T13:28:42.802Z,54.60
2019-02-05T13:31:09.408Z,55.20
2019-02-05T13:33:35.862Z,55.30
2019-02-05T13:36:05.083Z,55.10
2019-02-05T13:38:31.550Z,55.20
2019-02-05T13:40:58.162Z,54.80
2019-02-05T13:43:24.645Z,54.80
2019-02-05T13:45:51.590Z,55.30
2019-02-05T13:48:18.070Z,54.80
2019-02-05T13:50:44.727Z,53.30
2019-02-05T13:53:11.502Z,53.30
2019-02-05T13:55:40.043Z,52.60
2019-02-05T13:58:06.665Z,52.30
2019-02-05T14:00:42.093Z,52.40
2019-02-05T14:03:09.454Z,52.60
2019-02-05T14:05:36.454Z,52.80
2019-02-05T14:08:03.627Z,52.80
2019-02-05T14:10:32.619Z,52.30
2019-02-05T14:12:59.363Z,51.90
2019-02-05T14:15:29.049Z,52.70
2019-02-05T14:17:55.789Z,51.70
2019-02-05T14:20:22.665Z,51.60
2019-02-05T14:22:49.422Z,52.00
2019-02-05T14:25:16.627Z,51.40
2019-02-05T14:27:43.410Z,51.40
2019-02-05T14:30:16.339Z,51.50
2019-02-05T14:32:42.925Z,50.70
2019-02-05T14:35:09.706Z,50.30
2019-02-05T14:37:36.534Z,50.60
2019-02-05T14:40:06.865Z,50.60
2019-02-05T14:42:33.675Z,50.60
2019-02-05T14:45:00.156Z,50.50
2019-02-05T14:47:26.972Z,49.90
2019-02-05T14:49:53.591Z,49.70
2019-02-05T14:52:20.251Z,49.50
2019-02-05T14:54:47.009Z,49.50
2019-02-05T14:57:13.699Z,49.30
2019-02-05T14:59:42.978Z,48.70
2019-02-05T15:02:09.632Z,48.30
2019-02-05T15:04:36.339Z,49.00
2019-02-05T15:07:03.232Z,48.30
2019-02-05T15:09:30.209Z,48.00
2019-02-05T15:11:56.891Z,47.90
2019-02-05T15:14:23.590Z,47.90
2019-02-05T15:16:50.121Z,47.90
2019-02-05T15:19:16.666Z,48.00
2019-02-05T15:21:43.170Z,48.00
2019-02-05T15:24:09.731Z,48.10
2019-02-05T15:26:36.417Z,47.90
2019-02-05T15:29:03.491Z,48.20
2019-02-05T15:31:30.014Z,49.00
2019-02-05T15:33:59.744Z,48.30
2019-02-05T15:36:26.236Z,48.30
2019-02-05T15:38:52.686Z,48.70
2019-02-05T15:41:19.427Z,48.70
2019-02-05T15:43:46.007Z,48.70
2019-02-05T15:46:12.598Z,49.20
2019-02-05T15:48:39.215Z,50.50
2019-02-05T15:51:05.857Z,49.90
2019-02-05T15:53:32.592Z,50.20
2019-02-05T15:55:59.247Z,50.10
2019-02-05T15:58:25.980Z,50.30
2019-02-05T16:00:55.542Z,50.00
2019-02-05T16:03:22.497Z,50.10
2019-02-05T16:05:49.187Z,50.10
2019-02-05T16:08:15.811Z,50.20
2019-02-05T16:10:42.355Z,50.80
2019-02-05T16:13:09.114Z,50.70
2019-02-05T16:15:35.704Z,51.00
2019-02-05T16:18:02.398Z,51.40
2019-02-05T16:20:31.136Z,51.70
2019-02-05T16:22:57.725Z,51.90
2019-02-05T16:25:24.356Z,52.30
2019-02-05T16:27:51.290Z,52.70
2019-02-05T16:30:23.353Z,53.70
2019-02-05T16:32:50.079Z,53.30
2019-02-05T16:35:19.397Z,54.30
2019-02-05T16:37:46.162Z,54.80
2019-02-05T16:40:34.220Z,55.30
2019-02-05T16:43:00.752Z,55.70
2019-02-05T16:45:28.608Z,55.70
2019-02-05T16:47:55.287Z,55.80
2019-02-05T16:50:31.812Z,55.90
2019-02-05T16:52:58.426Z,56.00
2019-02-05T16:55:25.083Z,56.30
2019-02-05T16:57:51.755Z,56.40
2019-02-05T17:00:20.762Z,56.30
2019-02-05T17:02:47.454Z,56.50
2019-02-05T17:05:15.074Z,56.80
2019-02-05T17:07:41.620Z,56.70
2019-02-05T17:10:14.854Z,57.00
2019-02-05T17:12:42.225Z,57.20
2019-02-05T17:15:11.488Z,57.00
2019-02-05T17:17:50.436Z,57.20
2019-02-05T17:20:22.952Z,57.50
2019-02-05T17:22:51.774Z,57.90
2019-02-05T17:25:20.859Z,58.10
2019-02-05T17:27:47.703Z,58.50
2019-02-05T17:30:21.658Z,58.70
2019-02-05T17:32:48.528Z,58.80
2019-02-05T17:35:15.096Z,61.00
2019-02-05T17:37:41.565Z,60.40
2019-02-05T17:40:11.523Z,59.90
2019-02-05T17:42:38.164Z,59.90
2019-02-05T17:45:08.232Z,60.00
2019-02-05T17:47:34.544Z,59.50
2019-02-05T17:50:01.985Z,59.20
2019-02-05T17:52:28.347Z,59.70
2019-02-05T17:54:54.910Z,60.30
2019-02-05T17:57:21.650Z,60.20
2019-02-05T17:59:48.462Z,60.40
2019-02-05T18:02:14.821Z,60.40
2019-02-05T18:04:41.097Z,60.00
2019-02-05T18:07:07.927Z,60.10
2019-02-05T18:09:34.687Z,60.20
2019-02-05T18:12:01.188Z,60.10
2019-02-05T18:14:29.319Z,60.50
2019-02-05T18:16:58.723Z,60.90
2019-02-05T18:19:28.077Z,61.00
2019-02-05T18:21:55.223Z,61.10
2019-02-05T18:24:22.311Z,61.10
2019-02-05T18:26:50.828Z,61.70
2019-02-05T18:29:19.872Z,61.80
2019-02-05T18:31:48.435Z,61.70
2019-02-05T18:34:19.258Z,61.50
2019-02-05T18:36:46.627Z,61.60
2019-02-05T18:39:21.590Z,62.10
2019-02-05T18:41:48.458Z,62.70
2019-02-05T18:44:19.019Z,63.30
2019-02-05T18:46:48.372Z,63.80
2019-02-05T18:49:20.546Z,64.00
2019-02-05T18:51:49.179Z,64.30
2019-02-05T18:54:15.866Z,63.70
2019-02-05T18:56:45.522Z,63.60
2019-02-05T18:59:16.365Z,64.30
2019-02-05T19:01:43.226Z,64.60
2019-02-05T19:04:15.052Z,64.90
2019-02-05T19:06:41.956Z,65.30
2019-02-05T19:09:11.190Z,65.50
2019-02-05T19:11:39.639Z,65.50
2019-02-05T19:14:10.693Z,65.10
2019-02-05T19:16:37.173Z,66.10
2019-02-05T19:19:14.253Z,66.40
2019-02-05T19:21:35.767Z,65.80
2019-02-05T19:24:06.592Z,65.20
2019-02-05T19:26:34.482Z,65.60
2019-02-05T19:29:02.967Z,65.80
2019-02-05T19:31:32.874Z,65.20
2019-02-05T19:34:07.665Z,65.30
2019-02-05T19:36:39.138Z,65.10
2019-02-05T19:39:05.895Z,65.10
2019-02-05T19:41:38.726Z,65.80
2019-02-05T19:44:05.918Z,66.10
2019-02-05T19:46:51.222Z,65.80
2019-02-05T19:49:22.762Z,65.60
2019-02-05T19:51:50.499Z,65.30
2019-02-05T19:54:17.366Z,65.40
2019-02-05T19:56:46.649Z,66.30
2019-02-05T19:59:18.549Z,66.30
2019-02-05T20:01:51.586Z,65.70
2019-02-05T20:04:21.410Z,66.40
2019-02-05T20:06:47.984Z,67.20
2019-02-05T20:09:15.277Z,67.30
2019-02-05T20:11:46.684Z,66.70
2019-02-05T20:14:19.434Z,66.20
2019-02-05T20:16:47.545Z,66.30
2019-02-05T20:19:14.468Z,66.40
2019-02-05T20:21:43.825Z,67.50
2019-02-05T20:24:13.873Z,67.60
2019-02-05T20:26:47.537Z,68.20
2019-02-05T20:29:20.853Z,68.80
2019-02-05T20:31:47.535Z,69.40
2019-02-05T20:34:15.455Z,68.80
2019-02-05T20:36:44.513Z,68.10
2019-02-05T20:39:14.294Z,67.90
2019-02-05T20:41:43.500Z,67.90
2019-02-05T20:44:12.420Z,67.70
2019-02-05T20:46:41.016Z,68.10
2019-02-05T20:49:07.794Z,68.40
2019-02-05T20:51:34.261Z,68.80
2019-02-05T20:54:01.357Z,68.60
2019-02-05T20:56:31.999Z,69.00
2019-02-05T20:59:03.731Z,68.90
2019-02-05T21:01:30.827Z,69.40
2019-02-05T21:04:01.330Z,69.80
2019-02-05T21:06:27.521Z,69.20
2019-02-05T21:08:54.869Z,70.00
2019-02-05T21:11:31.016Z,70.70
2019-02-05T21:14:01.199Z,71.00
2019-02-05T21:16:27.842Z,69.90
2019-02-05T21:18:54.750Z,70.20
2019-02-05T21:21:27.956Z,70.40
2019-02-05T21:23:53.893Z,70.40
2019-02-05T21:26:21.190Z,70.80
2019-02-05T21:28:50.257Z,71.10
2019-02-05T21:31:23.522Z,70.90
2019-02-05T21:33:51.943Z,70.80
2019-02-05T21:36:20.122Z,70.80
2019-02-05T21:38:49.005Z,70.60
2019-02-05T21:41:17.917Z,70.20
2019-02-05T21:43:47.200Z,70.00
2019-02-05T21:46:13.782Z,70.20
2019-02-05T21:48:54.739Z,70.80
2019-02-05T21:51:19.126Z,70.90
2019-02-05T21:53:50.025Z,69.70
2019-02-05T21:56:18.507Z,69.80
2019-02-05T21:58:44.979Z,71.00
2019-02-05T22:01:17.376Z,72.90
2019-02-05T22:03:44.296Z,73.30
2019-02-05T22:06:11.771Z,73.70
2019-02-05T22:08:40.300Z,73.90
2019-02-05T22:11:09.481Z,73.30
2019-02-05T22:13:37.848Z,73.30
2019-02-05T22:16:06.032Z,72.90
2019-02-05T22:18:32.287Z,72.90
2019-02-05T22:20:59.796Z,72.70
2019-02-05T22:23:26.265Z,73.30
2019-02-05T22:25:52.970Z,74.00
2019-02-05T22:28:32.054Z,74.70
2019-02-05T22:30:59.204Z,73.60
2019-02-05T22:33:28.094Z,73.30
2019-02-05T22:35:54.215Z,73.40
2019-02-05T22:38:24.554Z,74.30
2019-02-05T22:40:54.701Z,74.50
2019-02-05T22:43:21.898Z,74.40
2019-02-05T22:45:48.186Z,74.20
2019-02-05T22:48:14.552Z,73.50
2019-02-05T22:50:40.955Z,72.70
2019-02-05T22:53:08.735Z,72.70
2019-02-05T22:55:35.371Z,72.50
2019-02-05T22:58:01.945Z,72.10
2019-02-05T23:00:36.960Z,72.80
2019-02-05T23:03:04.316Z,72.90
2019-02-05T23:05:58.458Z,72.10
2019-02-05T23:08:24.986Z,73.20
2019-02-05T23:11:03.358Z,74.70
2019-02-05T23:13:26.052Z,74.90
2019-02-05T23:15:52.711Z,75.00
2019-02-05T23:18:19.815Z,73.50
2019-02-05T23:20:46.292Z,74.00
2019-02-05T23:23:12.768Z,75.10
2019-02-05T23:25:39.174Z,74.70
2019-02-05T23:28:05.763Z,74.30
2019-02-05T23:30:32.359Z,73.90
2019-02-05T23:33:19.245Z,74.30
2019-02-05T23:35:45.797Z,74.90
2019-02-05T23:38:12.348Z,75.70
2019-02-05T23:40:38.625Z,76.20
2019-02-05T23:43:05.321Z,75.70
2019-02-05T23:45:31.686Z,75.50
2019-02-05T23:48:15.785Z,75.70
2019-02-05T23:50:42.140Z,75.80
2019-02-05T23:53:08.611Z,75.70
2019-02-05T23:55:34.872Z,75.80
2019-02-05T23:58:06.398Z,75.40
